createdAt,value
2019-03-01T00:00:16.305Z,111.20
2019-03-01T00:02:47.426Z,124.07
2019-03-01T00:05:28.719Z,124.57
2019-03-01T00:08:16.575Z,129.70
2019-03-01T00:11:08.861Z,116.60
2019-03-01T00:13:56.598Z,124.03
2019-03-01T00:16:40.989Z,131.87
2019-03-01T00:19:29.886Z,123.10
2019-03-01T00:22:23.696Z,128.97
2019-03-01T00:25:04.843Z,122.13
2019-03-01T00:27:44.902Z,120.20
2019-03-01T00:30:39.847Z,115.20
2019-03-01T00:33:12.328Z,113.17
2019-03-01T00:36:00.126Z,124.50
2019-03-01T00:38:52.378Z,115.63
2019-03-01T00:41:30.371Z,116.30
2019-03-01T00:44:19.012Z,116.53
2019-03-01T00:46:48.465Z,108.40
2019-03-01T00:49:17.896Z,118.57
2019-03-01T00:51:47.554Z,114.43
2019-03-01T00:54:18.605Z,113.70
2019-03-01T00:56:50.119Z,117.07
2019-03-01T00:59:19.244Z,110.50
2019-03-01T01:01:51.522Z,94.77
2019-03-01T01:04:22.030Z,110.63
2019-03-01T01:06:51.527Z,107.03
2019-03-01T01:09:20.971Z,105.37
2019-03-01T01:11:52.485Z,104.60
2019-03-01T01:14:22.006Z,104.70
2019-03-01T01:16:51.619Z,104.23
2019-03-01T01:19:21.071Z,105.10
2019-03-01T01:21:53.275Z,99.73
2019-03-01T01:24:22.733Z,100.83
2019-03-01T01:26:52.150Z,110.33
2019-03-01T01:29:21.599Z,102.00
2019-03-01T01:31:51.020Z,87.77
2019-03-01T01:34:20.537Z,99.30
2019-03-01T01:36:56.540Z,103.80
2019-03-01T01:39:26.413Z,85.47
2019-03-01T01:41:55.831Z,90.17
2019-03-01T01:44:25.266Z,92.33
2019-03-01T01:46:54.691Z,93.00
2019-03-01T01:49:27.046Z,88.97
2019-03-01T01:51:56.932Z,82.53
2019-03-01T01:54:37.079Z,85.40
2019-03-01T01:57:06.591Z,82.37
2019-03-01T01:59:37.647Z,81.10
2019-03-01T02:02:07.105Z,80.57
2019-03-01T02:04:36.591Z,82.20
2019-03-01T02:07:06.241Z,75.00
2019-03-01T02:09:36.881Z,78.57
2019-03-01T02:12:06.455Z,71.07
2019-03-01T02:14:38.661Z,70.97
2019-03-01T02:17:08.097Z,66.13
2019-03-01T02:19:37.939Z,73.47
2019-03-01T02:22:09.051Z,77.03
2019-03-01T02:24:38.406Z,67.07
2019-03-01T02:27:22.941Z,72.77
2019-03-01T02:29:52.614Z,74.10
2019-03-01T02:32:36.904Z,75.60
2019-03-01T02:35:12.739Z,69.87
2019-03-01T02:37:42.308Z,64.77
2019-03-01T02:40:14.180Z,69.67
2019-03-01T02:42:43.722Z,70.90
2019-03-01T02:45:16.249Z,72.77
2019-03-01T02:47:45.666Z,74.53
2019-03-01T02:50:16.862Z,74.27
2019-03-01T02:52:46.411Z,68.50
2019-03-01T02:55:21.163Z,66.13
2019-03-01T02:57:53.810Z,64.37
2019-03-01T03:00:29.485Z,70.73
2019-03-01T03:02:59.084Z,74.53
2019-03-01T03:05:28.598Z,65.70
2019-03-01T03:08:05.680Z,66.63
2019-03-01T03:10:37.284Z,72.23
2019-03-01T03:13:07.737Z,73.10
2019-03-01T03:15:43.244Z,68.10
2019-03-01T03:18:14.977Z,66.83
2019-03-01T03:20:44.418Z,70.07
2019-03-01T03:23:13.852Z,59.80
2019-03-01T03:25:46.661Z,61.73
2019-03-01T03:28:17.970Z,65.23
2019-03-01T03:30:49.166Z,63.70
2019-03-01T03:33:18.631Z,61.73
2019-03-01T03:35:48.425Z,61.97
2019-03-01T03:38:17.909Z,68.23
2019-03-01T03:40:48.993Z,63.80
2019-03-01T03:43:18.502Z,57.97
2019-03-01T03:45:47.947Z,52.13
2019-03-01T03:48:20.579Z,62.43
2019-03-01T03:50:50.023Z,64.93
2019-03-01T03:53:19.463Z,63.17
2019-03-01T03:55:48.901Z,63.07
2019-03-01T03:58:18.380Z,64.90
2019-03-01T04:00:48.967Z,71.67
2019-03-01T04:03:21.735Z,67.60
2019-03-01T04:05:52.287Z,63.73
2019-03-01T04:08:21.804Z,62.47
2019-03-01T04:10:51.223Z,66.33
2019-03-01T04:13:20.671Z,68.90
2019-03-01T04:15:52.576Z,67.20
2019-03-01T04:18:22.023Z,68.10
2019-03-01T04:20:51.448Z,74.47
2019-03-01T04:23:20.884Z,65.77
2019-03-01T04:25:50.324Z,69.23
2019-03-01T04:28:20.320Z,69.10
2019-03-01T04:30:49.885Z,70.23
2019-03-01T04:33:20.623Z,78.90
2019-03-01T04:35:50.058Z,72.87
2019-03-01T04:38:19.497Z,72.57
2019-03-01T04:40:50.911Z,71.47
2019-03-01T04:43:20.354Z,70.03
2019-03-01T04:45:49.906Z,74.37
2019-03-01T04:48:19.286Z,71.30
2019-03-01T04:50:49.200Z,80.60
2019-03-01T04:53:21.386Z,74.43
2019-03-01T04:55:50.803Z,78.60
2019-03-01T04:58:20.266Z,74.37
2019-03-01T05:00:49.753Z,72.07
2019-03-01T05:03:22.310Z,80.07
2019-03-01T05:05:54.124Z,81.60
2019-03-01T05:08:23.539Z,73.07
2019-03-01T05:10:56.550Z,71.10
2019-03-01T05:13:26.128Z,74.67
2019-03-01T05:15:56.060Z,71.63
2019-03-01T05:18:25.522Z,72.07
2019-03-01T05:20:57.203Z,69.80
2019-03-01T05:23:26.658Z,68.40
2019-03-01T05:25:56.074Z,71.70
2019-03-01T05:28:25.493Z,80.67
2019-03-01T05:30:54.953Z,72.53
2019-03-01T05:33:24.366Z,74.77
2019-03-01T05:35:55.330Z,69.67
2019-03-01T05:38:28.544Z,72.40
2019-03-01T05:40:59.891Z,69.20
2019-03-01T05:43:29.302Z,66.33
2019-03-01T05:45:58.760Z,74.93
2019-03-01T05:48:28.176Z,67.00
2019-03-01T05:50:57.692Z,73.47
2019-03-01T05:53:27.180Z,70.53
2019-03-01T05:55:56.648Z,64.93
2019-03-01T05:58:33.925Z,62.60
2019-03-01T06:01:06.549Z,71.50
2019-03-01T06:03:55.371Z,70.97
2019-03-01T06:07:01.494Z,63.97
2019-03-01T06:09:49.139Z,65.63
2019-03-01T06:12:21.607Z,67.57
2019-03-01T06:15:05.903Z,68.33
2019-03-01T06:18:02.725Z,63.33
2019-03-01T06:20:56.148Z,64.47
2019-03-01T06:23:40.649Z,59.47
2019-03-01T06:26:38.861Z,61.57
2019-03-01T06:29:14.259Z,69.63
2019-03-01T06:32:04.321Z,69.23
2019-03-01T06:34:48.828Z,73.20
2019-03-01T06:37:51.567Z,66.80
2019-03-01T06:40:31.473Z,71.83
2019-03-01T06:43:06.778Z,65.43
2019-03-01T06:45:54.065Z,69.63
2019-03-01T06:48:25.151Z,73.90
2019-03-01T06:50:56.245Z,68.23
2019-03-01T06:53:25.737Z,65.53
2019-03-01T06:55:55.318Z,66.30
2019-03-01T06:58:24.810Z,68.33
2019-03-01T07:00:55.963Z,70.57
2019-03-01T07:03:25.460Z,64.87
2019-03-01T07:06:03.118Z,71.77
2019-03-01T07:08:26.016Z,70.93
2019-03-01T07:10:55.461Z,66.43
2019-03-01T07:13:25.047Z,75.47
2019-03-01T07:15:54.482Z,70.50
2019-03-01T07:18:23.928Z,71.27
2019-03-01T07:20:54.420Z,73.93
2019-03-01T07:23:23.875Z,70.23
2019-03-01T07:25:54.874Z,81.53
2019-03-01T07:28:24.574Z,78.10
2019-03-01T07:30:54.012Z,71.83
2019-03-01T07:33:23.535Z,72.47
2019-03-01T07:35:52.966Z,70.73
2019-03-01T07:38:22.424Z,79.40
2019-03-01T07:40:51.882Z,84.40
2019-03-01T07:43:21.386Z,73.07
2019-03-01T07:45:51.080Z,80.60
2019-03-01T07:48:20.587Z,87.33
2019-03-01T07:50:52.427Z,80.87
2019-03-01T07:53:21.316Z,84.17
2019-03-01T07:55:50.833Z,94.97
2019-03-01T07:58:21.576Z,91.37
2019-03-01T08:00:53.610Z,95.13
2019-03-01T08:03:22.630Z,99.30
2019-03-01T08:05:52.051Z,113.40
2019-03-01T08:08:22.700Z,113.50
2019-03-01T08:10:53.475Z,107.80
2019-03-01T08:13:23.199Z,100.13
2019-03-01T08:15:52.697Z,96.90
2019-03-01T08:18:22.154Z,90.17
2019-03-01T08:20:51.661Z,92.10
2019-03-01T08:23:21.120Z,92.27
2019-03-01T08:25:50.610Z,89.37
2019-03-01T08:28:22.014Z,93.80
2019-03-01T08:30:51.312Z,81.50
2019-03-01T08:33:20.763Z,82.10
2019-03-01T08:35:50.188Z,91.73
2019-03-01T08:38:21.582Z,84.03
2019-03-01T08:40:51.123Z,83.53
2019-03-01T08:43:20.555Z,82.57
2019-03-01T08:45:49.989Z,87.57
2019-03-01T08:48:19.495Z,82.17
2019-03-01T08:50:48.935Z,88.90
2019-03-01T08:53:18.380Z,91.07
2019-03-01T08:55:47.801Z,93.90
2019-03-01T08:58:18.425Z,98.00
2019-03-01T09:00:59.040Z,110.43
2019-03-01T09:03:41.685Z,110.10
2019-03-01T09:06:11.402Z,116.03
2019-03-01T09:08:42.863Z,118.97
2019-03-01T09:11:12.248Z,113.03
2019-03-01T09:13:41.792Z,122.80
2019-03-01T09:16:11.424Z,121.27
2019-03-01T09:18:41.267Z,116.30
2019-03-01T09:21:12.935Z,120.63
2019-03-01T09:23:41.970Z,115.63
2019-03-01T09:26:11.802Z,118.90
2019-03-01T09:28:41.307Z,125.00
2019-03-01T09:31:10.784Z,130.40
2019-03-01T09:33:40.282Z,136.63
2019-03-01T09:36:14.433Z,131.47
2019-03-01T09:38:43.715Z,119.87
2019-03-01T09:41:13.391Z,125.77
2019-03-01T09:43:42.976Z,139.00
2019-03-01T09:46:12.492Z,132.13
2019-03-01T09:48:41.991Z,142.53
2019-03-01T09:51:11.539Z,126.47
2019-03-01T09:53:41.038Z,118.63
2019-03-01T09:56:12.914Z,107.00
2019-03-01T09:58:41.763Z,113.20
2019-03-01T10:01:17.094Z,110.53
2019-03-01T10:03:46.942Z,110.73
2019-03-01T10:06:16.412Z,108.80
2019-03-01T10:08:46.003Z,107.20
2019-03-01T10:11:18.909Z,99.73
2019-03-01T10:13:52.538Z,92.73
2019-03-01T10:16:33.430Z,95.63
2019-03-01T10:19:03.127Z,87.77
2019-03-01T10:21:40.372Z,95.17
2019-03-01T10:24:25.365Z,96.93
2019-03-01T10:27:05.014Z,86.47
2019-03-01T10:29:37.278Z,93.07
2019-03-01T10:32:06.804Z,91.97
2019-03-01T10:34:36.371Z,84.40
2019-03-01T10:37:05.872Z,89.60
2019-03-01T10:39:35.508Z,92.13
2019-03-01T10:42:05.008Z,89.30
2019-03-01T10:44:34.548Z,75.97
2019-03-01T10:47:04.215Z,83.40
2019-03-01T10:49:33.782Z,85.30
2019-03-01T10:52:03.448Z,79.97
2019-03-01T10:54:33.977Z,75.83
2019-03-01T10:57:04.568Z,72.13
2019-03-01T10:59:33.989Z,76.27
2019-03-01T11:02:03.606Z,65.17
2019-03-01T11:04:33.313Z,71.93
2019-03-01T11:07:02.861Z,65.90
2019-03-01T11:09:32.329Z,71.93
2019-03-01T11:12:04.639Z,70.40
2019-03-01T11:14:34.071Z,68.37
2019-03-01T11:17:03.567Z,63.33
2019-03-01T11:19:33.155Z,66.77
2019-03-01T11:22:02.729Z,58.70
2019-03-01T11:24:32.161Z,53.57
2019-03-01T11:27:01.623Z,50.50
2019-03-01T11:29:31.037Z,44.33
2019-03-01T11:32:00.503Z,41.50
2019-03-01T11:34:29.959Z,44.50
2019-03-01T11:37:01.213Z,37.70
2019-03-01T11:39:33.755Z,39.40
2019-03-01T11:42:06.065Z,38.60
2019-03-01T11:44:35.590Z,36.23
2019-03-01T11:47:05.015Z,37.37
2019-03-01T11:49:34.528Z,38.03
2019-03-01T11:52:04.107Z,35.07
2019-03-01T11:54:33.541Z,34.67
2019-03-01T11:57:02.996Z,36.00
2019-03-01T11:59:32.507Z,36.30
2019-03-01T12:02:02.008Z,37.03
2019-03-01T12:04:36.359Z,38.37
2019-03-01T12:07:05.828Z,38.87
2019-03-01T12:09:35.258Z,33.43
2019-03-01T12:12:06.739Z,36.80
2019-03-01T12:14:36.422Z,33.33
2019-03-01T12:17:05.873Z,33.80
2019-03-01T12:19:35.366Z,33.87
2019-03-01T12:22:04.783Z,35.20
2019-03-01T12:24:34.219Z,38.83
2019-03-01T12:27:03.780Z,37.90
2019-03-01T12:29:33.304Z,35.37
2019-03-01T12:32:02.986Z,39.20
2019-03-01T12:34:32.580Z,38.97
2019-03-01T12:37:03.179Z,36.73
2019-03-01T12:39:32.697Z,31.27
2019-03-01T12:42:02.185Z,35.73
2019-03-01T12:44:31.632Z,39.07
2019-03-01T12:47:01.200Z,35.83
2019-03-01T12:49:32.264Z,35.77
2019-03-01T12:52:04.681Z,41.27
2019-03-01T12:54:34.216Z,32.33
2019-03-01T12:57:03.759Z,41.80
2019-03-01T12:59:33.445Z,30.50
2019-03-01T13:02:02.888Z,41.40
2019-03-01T13:04:35.439Z,35.80
2019-03-01T13:07:04.981Z,32.03
2019-03-01T13:09:34.505Z,30.40
2019-03-01T13:12:04.226Z,32.43
2019-03-01T13:14:36.702Z,31.70
2019-03-01T13:17:05.045Z,28.70
2019-03-01T13:19:34.581Z,22.23
2019-03-01T13:22:04.193Z,20.00
2019-03-01T13:24:33.687Z,15.90
2019-03-01T13:27:05.687Z,14.30
2019-03-01T13:29:35.315Z,11.73
2019-03-01T13:32:04.834Z,11.87
2019-03-01T13:34:34.264Z,11.73
2019-03-01T13:37:03.854Z,12.27
2019-03-01T13:39:33.382Z,14.60
2019-03-01T13:42:03.256Z,14.87
2019-03-01T13:44:32.746Z,16.27
2019-03-01T13:47:05.313Z,11.03
2019-03-01T13:49:36.422Z,7.87
2019-03-01T13:52:05.932Z,7.47
2019-03-01T13:54:35.398Z,8.00
2019-03-01T13:57:04.906Z,9.43
2019-03-01T13:59:37.603Z,6.80
2019-03-01T14:02:07.591Z,7.27
2019-03-01T14:04:40.315Z,8.70
2019-03-01T14:07:08.454Z,7.07
2019-03-01T14:09:37.987Z,5.97
2019-03-01T14:12:07.386Z,7.60
2019-03-01T14:14:36.922Z,9.17
2019-03-01T14:17:09.567Z,7.10
2019-03-01T14:19:42.176Z,6.70
2019-03-01T14:22:16.119Z,7.30
2019-03-01T14:24:45.724Z,6.83
2019-03-01T14:27:18.300Z,5.90
2019-03-01T14:29:52.528Z,6.67
2019-03-01T14:32:21.755Z,9.67
2019-03-01T14:34:50.119Z,5.80
2019-03-01T14:37:19.546Z,4.53
2019-03-01T14:39:48.964Z,4.97
2019-03-01T14:42:20.865Z,8.33
2019-03-01T14:44:50.314Z,4.93
2019-03-01T14:47:19.996Z,5.70
2019-03-01T14:49:53.956Z,4.80
2019-03-01T14:52:23.202Z,3.67
2019-03-01T14:54:52.664Z,3.43
2019-03-01T14:57:24.718Z,4.77
2019-03-01T15:00:00.364Z,3.40
2019-03-01T15:02:39.713Z,4.07
2019-03-01T15:05:17.098Z,6.03
2019-03-01T15:07:40.931Z,6.10
2019-03-01T15:10:12.655Z,5.90
2019-03-01T15:12:42.394Z,6.37
2019-03-01T15:15:13.253Z,6.40
2019-03-01T15:17:44.034Z,6.10
2019-03-01T15:20:17.164Z,5.43
2019-03-01T15:22:48.687Z,5.00
2019-03-01T15:25:19.245Z,7.07
2019-03-01T15:27:49.111Z,10.97
2019-03-01T15:30:18.945Z,17.97
2019-03-01T15:32:48.525Z,34.13
2019-03-01T15:35:19.056Z,16.20
2019-03-01T15:37:48.500Z,5.33
2019-03-01T15:40:18.002Z,6.27
2019-03-01T15:42:47.495Z,6.57
2019-03-01T15:45:19.847Z,8.37
2019-03-01T15:47:50.496Z,9.37
2019-03-01T15:50:20.122Z,8.77
2019-03-01T15:52:50.761Z,7.47
2019-03-01T15:55:20.545Z,11.53
2019-03-01T15:57:53.009Z,7.80
2019-03-01T16:00:25.591Z,11.10
2019-03-01T16:02:54.072Z,12.50
2019-03-01T16:05:23.871Z,9.53
2019-03-01T16:07:53.452Z,9.10
2019-03-01T16:10:22.874Z,9.97
2019-03-01T16:12:52.317Z,12.20
2019-03-01T16:15:24.681Z,14.77
2019-03-01T16:17:57.619Z,14.00
2019-03-01T16:20:28.481Z,12.13
2019-03-01T16:22:57.493Z,10.53
2019-03-01T16:25:29.959Z,8.97
2019-03-01T16:27:59.594Z,8.00
2019-03-01T16:30:29.057Z,8.37
2019-03-01T16:32:58.570Z,11.97
2019-03-01T16:35:28.069Z,9.20
2019-03-01T16:38:01.397Z,12.03
2019-03-01T16:40:30.604Z,10.00
2019-03-01T16:43:00.210Z,10.47
2019-03-01T16:45:29.985Z,14.87
2019-03-01T16:48:00.926Z,8.77
2019-03-01T16:50:30.568Z,12.80
2019-03-01T16:53:04.325Z,9.30
2019-03-01T16:55:31.778Z,10.80
2019-03-01T16:58:06.710Z,8.20
2019-03-01T17:00:32.522Z,8.17
2019-03-01T17:03:07.160Z,12.90
2019-03-01T17:05:38.789Z,11.20
2019-03-01T17:08:08.118Z,11.10
2019-03-01T17:10:37.714Z,8.13
2019-03-01T17:13:07.195Z,8.47
2019-03-01T17:15:36.720Z,14.17
2019-03-01T17:18:11.282Z,9.63
2019-03-01T17:20:38.389Z,9.87
2019-03-01T17:23:08.034Z,19.97
2019-03-01T17:25:37.510Z,38.73
2019-03-01T17:28:07.040Z,30.63
2019-03-01T17:30:39.294Z,36.20
2019-03-01T17:33:09.683Z,26.43
2019-03-01T17:35:40.915Z,14.20
2019-03-01T17:38:11.328Z,12.37
2019-03-01T17:40:40.844Z,10.40
2019-03-01T17:43:10.397Z,15.33
2019-03-01T17:45:39.840Z,15.83
2019-03-01T17:48:09.339Z,16.83
2019-03-01T17:50:41.729Z,14.30
2019-03-01T17:53:10.472Z,14.07
2019-03-01T17:55:40.087Z,12.77
2019-03-01T17:58:09.734Z,13.13
2019-03-01T18:00:43.585Z,16.40
2019-03-01T18:03:13.081Z,24.47
2019-03-01T18:05:42.593Z,23.30
2019-03-01T18:08:13.956Z,19.23
2019-03-01T18:10:43.477Z,15.60
2019-03-01T18:13:14.947Z,14.23
2019-03-01T18:15:45.087Z,19.77
2019-03-01T18:18:15.231Z,17.40
2019-03-01T18:20:44.851Z,25.07
2019-03-01T18:23:14.437Z,23.70
2019-03-01T18:25:43.869Z,20.23
2019-03-01T18:28:13.391Z,16.43
2019-03-01T18:30:42.882Z,18.57
2019-03-01T18:33:12.406Z,19.83
2019-03-01T18:35:41.838Z,14.23
2019-03-01T18:38:11.344Z,19.03
2019-03-01T18:40:43.285Z,20.93
2019-03-01T18:43:15.221Z,18.27
2019-03-01T18:45:44.646Z,17.97
2019-03-01T18:48:14.172Z,19.20
2019-03-01T18:50:43.681Z,17.40
2019-03-01T18:53:13.174Z,41.13
2019-03-01T18:55:42.628Z,50.23
2019-03-01T18:58:13.978Z,52.50
2019-03-01T19:00:45.911Z,41.10
2019-03-01T19:03:18.387Z,22.97
2019-03-01T19:05:47.947Z,19.30
2019-03-01T19:08:19.804Z,21.60
2019-03-01T19:10:54.163Z,17.10
2019-03-01T19:13:24.038Z,15.70
2019-03-01T19:15:54.544Z,15.63
2019-03-01T19:18:23.381Z,13.10
2019-03-01T19:20:53.950Z,14.50
2019-03-01T19:23:25.573Z,12.87
2019-03-01T19:25:57.883Z,13.77
2019-03-01T19:28:26.833Z,12.60
2019-03-01T19:30:57.162Z,17.27
2019-03-01T19:33:26.575Z,13.20
2019-03-01T19:35:56.042Z,11.37
2019-03-01T19:38:25.894Z,11.83
2019-03-01T19:40:55.447Z,17.43
2019-03-01T19:43:24.932Z,17.17
2019-03-01T19:45:54.373Z,13.70
2019-03-01T19:48:23.823Z,10.73
2019-03-01T19:50:53.309Z,10.57
2019-03-01T19:53:25.461Z,12.90
2019-03-01T19:55:54.098Z,14.17
2019-03-01T19:58:25.070Z,12.67
2019-03-01T20:00:54.486Z,13.53
2019-03-01T20:03:23.941Z,12.30
2019-03-01T20:05:53.460Z,10.50
2019-03-01T20:08:22.882Z,13.97
2019-03-01T20:10:52.393Z,10.67
2019-03-01T20:13:21.879Z,13.70
2019-03-01T20:15:51.328Z,9.10
2019-03-01T20:18:20.805Z,9.43
2019-03-01T20:20:50.257Z,11.83
2019-03-01T20:23:19.733Z,7.57
2019-03-01T20:25:51.031Z,12.63
2019-03-01T20:28:20.497Z,10.07
2019-03-01T20:30:49.934Z,12.10
2019-03-01T20:33:23.358Z,6.63
2019-03-01T20:35:51.035Z,6.77
2019-03-01T20:38:20.537Z,8.80
2019-03-01T20:40:49.994Z,8.23
2019-03-01T20:43:19.446Z,9.97
2019-03-01T20:45:50.709Z,8.53
2019-03-01T20:48:20.253Z,10.40
2019-03-01T20:50:51.024Z,10.07
2019-03-01T20:53:20.966Z,9.13
2019-03-01T20:55:51.046Z,8.87
2019-03-01T20:58:23.597Z,7.97
2019-03-01T21:00:53.159Z,9.47
2019-03-01T21:03:24.960Z,8.87
2019-03-01T21:05:53.824Z,8.10
2019-03-01T21:08:28.780Z,11.10
2019-03-01T21:10:54.483Z,10.60
2019-03-01T21:13:23.977Z,10.57
2019-03-01T21:15:53.422Z,7.47
2019-03-01T21:18:22.909Z,7.80
2019-03-01T21:20:53.797Z,7.93
2019-03-01T21:23:23.548Z,8.47
2019-03-01T21:25:52.979Z,8.00
2019-03-01T21:28:22.427Z,12.57
2019-03-01T21:30:51.840Z,7.50
2019-03-01T21:33:24.019Z,7.17
2019-03-01T21:35:52.412Z,10.93
2019-03-01T21:38:23.636Z,10.37
2019-03-01T21:40:54.211Z,9.07
2019-03-01T21:43:23.732Z,11.60
2019-03-01T21:45:55.524Z,11.43
2019-03-01T21:48:25.312Z,10.40
2019-03-01T21:50:55.538Z,7.30
2019-03-01T21:53:25.381Z,8.80
2019-03-01T21:55:54.919Z,11.30
2019-03-01T21:58:24.379Z,8.63
2019-03-01T22:00:53.844Z,8.63
2019-03-01T22:03:24.887Z,10.47
2019-03-01T22:05:54.518Z,9.80
2019-03-01T22:08:24.004Z,9.07
2019-03-01T22:10:53.452Z,8.70
2019-03-01T22:13:22.952Z,7.37
2019-03-01T22:15:52.455Z,6.20
2019-03-01T22:18:23.710Z,7.17
2019-03-01T22:20:53.092Z,6.70
2019-03-01T22:23:22.522Z,6.07
2019-03-01T22:25:51.960Z,10.70
2019-03-01T22:28:21.421Z,7.23
2019-03-01T22:30:50.842Z,10.70
2019-03-01T22:33:20.770Z,12.83
2019-03-01T22:35:51.357Z,9.80
2019-03-01T22:38:20.792Z,10.73
2019-03-01T22:40:50.233Z,9.57
2019-03-01T22:43:22.471Z,10.13
2019-03-01T22:45:50.798Z,12.60
2019-03-01T22:48:20.244Z,11.20
2019-03-01T22:50:49.681Z,8.67
2019-03-01T22:53:19.138Z,6.83
2019-03-01T22:55:51.541Z,6.43
2019-03-01T22:58:19.691Z,9.70
2019-03-01T23:01:00.051Z,5.77
2019-03-01T23:03:30.206Z,9.07
2019-03-01T23:05:59.717Z,9.93
2019-03-01T23:08:31.747Z,6.43
2019-03-01T23:11:00.529Z,10.67
2019-03-01T23:13:30.015Z,10.07
2019-03-01T23:15:59.522Z,8.67
2019-03-01T23:18:28.944Z,11.40
2019-03-01T23:21:01.112Z,6.20
2019-03-01T23:23:29.495Z,6.87
2019-03-01T23:25:58.980Z,8.53
2019-03-01T23:28:28.496Z,9.83
2019-03-01T23:31:00.573Z,9.63
2019-03-01T23:33:31.554Z,5.90
2019-03-01T23:36:00.652Z,8.40
2019-03-01T23:38:30.066Z,11.83
2019-03-01T23:40:59.504Z,11.77
2019-03-01T23:43:30.897Z,7.53
2019-03-01T23:46:00.102Z,6.77
2019-03-01T23:48:29.539Z,7.67
2019-03-01T23:50:58.984Z,7.27
2019-03-01T23:53:30.943Z,10.67
2019-03-01T23:55:59.544Z,8.73
2019-03-01T23:58:28.958Z,11.00
